Time,TemperatureF,DewpointF,PressureIn,WindDirection,WindDirectionDegrees,WindSpeedMPH,WindSpeedGustMPH,Humidity,HourlyPrecipIn,Conditions,Clouds,dailyrainin,SoftwareType,DateUTC
2013-08-25 00:10:00,63.0,49.0,-100.00,North,360,1.0,6.0,60,-99.99,,,-99.99,,2013-08-25 07:10:00,
2013-08-25 02:10:00,61.0,48.0,-100.00,NW,310,3.0,6.0,62,-99.99,,,-99.99,,2013-08-25 09:10:00,
2013-08-25 02:11:00,61.0,49.0,-100.00,North,360,2.0,6.0,64,-99.99,,,-99.99,,2013-08-25 09:11:00,
2013-08-25 05:10:00,58.0,47.0,-100.00,NW,315,6.0,9.0,66,-99.99,,,-99.99,,2013-08-25 12:10:00,
2013-08-25 07:10:00,58.0,48.0,-100.00,North,360,5.0,9.0,69,-99.99,,,-99.99,,2013-08-25 14:10:00,
2013-08-25 07:11:00,58.0,48.0,-100.00,North,355,3.0,9.0,69,-99.99,,,-99.99,,2013-08-25 14:11:00,
2013-08-25 09:13:00,63.0,50.0,-100.00,North,360,2.0,5.0,62,-99.99,,,-99.99,,2013-08-25 16:13:00,
2013-08-25 09:20:00,68.0,51.0,-100.00,North,360,3.0,9.0,54,-99.99,,,-99.99,,2013-08-25 16:20:00,
2013-08-25 10:10:00,74.0,50.0,-100.00,West,280,3.0,7.0,42,-99.99,,,-99.99,,2013-08-25 17:10:00,
2013-08-25 10:11:00,68.0,51.0,-100.00,North,360,3.0,9.0,54,-99.99,,,-99.99,,2013-08-25 17:11:00,
2013-08-25 12:11:00,77.0,50.0,-100.00,NE,55,1.0,2.0,38,-99.99,,,-99.99,,2013-08-25 19:11:00,
2013-08-25 13:10:00,71.0,55.0,-100.00,South,185,1.0,5.0,56,-99.99,,,-99.99,,2013-08-25 20:10:00,
2013-08-25 15:10:00,78.0,53.0,-100.00,North,360,3.0,8.0,41,-99.99,,,-99.99,,2013-08-25 22:10:00,
2013-08-25 15:14:00,73.0,56.0,-100.00,NNE,15,2.0,7.0,55,-99.99,,,-99.99,,2013-08-25 22:14:00,
2013-08-25 17:11:00,77.0,52.0,-100.00,North,360,3.0,7.0,41,-99.99,,,-99.99,,2013-08-26 00:11:00,
2013-08-25 18:10:00,75.0,52.0,-100.00,NW,305,2.0,3.0,44,-99.99,,,-99.99,,2013-08-26 01:10:00,
2013-08-25 20:10:00,71.0,53.0,-100.00,West,280,6.0,9.0,52,-99.99,,,-99.99,,2013-08-26 03:10:00,
2013-08-25 20:11:00,71.0,55.0,-100.00,NNW,335,2.0,5.0,56,-99.99,,,-99.99,,2013-08-26 03:11:00,
2013-08-25 22:13:00,67.0,56.0,-100.00,ENE,65,1.0,6.0,67,-99.99,,,-99.99,,2013-08-26 05:13:00,
2013-08-25 22:20:00,64.0,57.0,-100.00,WNW,300,3.0,3.0,77,-99.99,,,-99.99,,2013-08-26 05:20:00,
2013-08-25 23:10:00,63.0,56.0,-100.00,NW,320,2.0,3.0,77,-99.99,,,-99.99,,2013-08-26 06:10:00,
2013-08-25 23:12:00,64.0,57.0,-100.00,WNW,300,3.0,3.0,77,-99.99,,,-99.99,,2013-08-26 06:12:00,